Time;durP1;ratioP1;P1;durP2;ratioP2;P2;SDS_P1;SDS_P2;PMS_P1;PMS_P2;Temp;Humidity;BMP_temperature;BMP_pressure;BME280_temperature;BME280_humidity;BME280_pressure;Samples;Min_cycle;Max_cycle;Signal;HPM_P1;HPM_P2
2022/11/17 00:01:47;;;;;;;19.90;9.80;;;11.30;93.30;;;;;;4946118;28;20191;-75
2022/11/17 00:04:13;;;;;;;16.98;10.05;;;11.30;93.20;;;;;;4993039;28;20288;-77
2022/11/17 00:06:39;;;;;;;15.05;8.88;;;11.30;92.80;;;;;;5007808;28;20256;-75
2022/11/17 00:09:04;;;;;;;15.75;8.52;;;11.20;92.60;;;;;;5004843;28;20235;-76
2022/11/17 00:14:31;;;;;;;20.23;9.43;;;11.20;93.30;;;;;;5007460;28;20199;-76
2022/11/17 00:14:35;;;;;;;15.73;7.70;;;11.20;92.70;;;;;;5003112;28;20189;-76
2022/11/17 00:17:12;;;;;;;16.38;8.73;;;11.30;93.40;;;;;;4985418;28;20685;-76
2022/11/17 00:22:24;;;;;;;16.40;9.15;;;11.30;93.20;;;;;;5003051;28;20692;-75
2022/11/17 00:24:50;;;;;;;16.17;8.70;;;11.20;92.60;;;;;;5005050;28;20190;-75
2022/11/17 00:27:17;;;;;;;13.45;8.43;;;11.20;92.60;;;;;;5003971;28;20217;-76
2022/11/17 00:29:42;;;;;;;12.48;8.60;;;11.20;93.10;;;;;;5002016;28;20225;-76
2022/11/17 00:35:00;;;;;;;15.95;8.63;;;11.20;92.20;;;;;;5005703;28;20323;-76
2022/11/17 00:37:34;;;;;;;16.65;8.23;;;11.20;93.50;;;;;;5003334;28;20287;-76
2022/11/17 00:40:00;;;;;;;11.60;8.77;;;11.20;92.50;;;;;;5002622;28;20200;-76
2022/11/17 00:42:26;;;;;;;16.70;9.07;;;11.20;92.80;;;;;;5006626;28;20184;-76
2022/11/17 00:44:51;;;;;;;13.23;8.55;;;11.20;94.00;;;;;;5001572;28;20184;-76
2022/11/17 00:47:17;;;;;;;9.63;7.82;;;11.30;94.00;;;;;;4999631;28;20184;-76
2022/11/17 00:49:43;;;;;;;11.48;7.80;;;11.20;93.60;;;;;;5004148;28;20204;-76
2022/11/17 00:52:09;;;;;;;15.52;8.68;;;11.30;94.00;;;;;;5003501;28;20212;-76
2022/11/17 00:54:35;;;;;;;12.75;8.27;;;11.20;93.40;;;;;;5002406;28;20651;-76
2022/11/17 00:57:01;;;;;;;11.48;8.20;;;11.20;93.00;;;;;;5001616;28;20188;-76
2022/11/17 00:59:26;;;;;;;14.20;8.32;;;11.20;93.30;;;;;;4986946;28;20191;-76
2022/11/17 01:01:52;;;;;;;11.32;7.93;;;11.20;93.60;;;;;;5000152;28;20189;-75
2022/11/17 01:04:18;;;;;;;13.98;8.57;;;11.20;93.60;;;;;;4988309;28;20243;-76
2022/11/17 01:06:46;;;;;;;11.85;8.10;;;11.20;93.10;;;;;;5002813;28;20196;-75
2022/11/17 01:09:14;;;;;;;11.30;7.60;;;11.20;93.00;;;;;;5001056;28;20189;-75
2022/11/17 01:11:41;;;;;;;11.43;7.60;;;11.20;93.10;;;;;;5004275;28;20182;-75
2022/11/17 01:14:10;;;;;;;12.52;8.10;;;11.20;93.30;;;;;;5003706;28;21053;-76
2022/11/17 01:16:35;;;;;;;13.15;8.45;;;11.20;93.00;;;;;;5001962;28;20617;-76
2022/11/17 01:19:02;;;;;;;17.13;8.35;;;11.10;92.90;;;;;;5001584;28;20216;-76
2022/11/17 01:21:29;;;;;;;16.05;8.50;;;11.20;93.60;;;;;;5002764;28;20212;-76
2022/11/17 01:23:57;;;;;;;13.55;8.20;;;11.20;94.10;;;;;;5003004;28;20191;-76
2022/11/17 01:26:28;;;;;;;9.45;7.32;;;11.20;93.50;;;;;;5001648;28;20212;-75
2022/11/17 01:28:54;;;;;;;13.13;7.53;;;11.20;93.80;;;;;;5002017;28;20200;-77
2022/11/17 01:31:23;;;;;;;8.70;6.97;;;11.10;94.50;;;;;;5002062;28;20185;-76
2022/11/17 01:33:49;;;;;;;14.85;7.63;;;11.10;94.20;;;;;;5004700;28;20220;-77
2022/11/17 01:36:18;;;;;;;15.05;7.88;;;11.10;93.80;;;;;;5005884;28;20243;-77
2022/11/17 01:38:44;;;;;;;13.35;7.22;;;11.00;94.30;;;;;;5008324;28;20669;-76
2022/11/17 01:41:22;;;;;;;8.85;7.65;;;11.10;94.40;;;;;;5005970;28;20180;-76
2022/11/17 01:43:51;;;;;;;12.10;7.25;;;11.10;94.40;;;;;;5007750;28;20953;-76
2022/11/17 01:46:38;;;;;;;12.95;6.90;;;11.00;94.30;;;;;;5004668;28;20237;-76
2022/11/17 01:49:24;;;;;;;10.25;6.63;;;11.00;93.80;;;;;;5005669;28;20212;-76
2022/11/17 01:51:58;;;;;;;9.25;6.57;;;11.00;94.70;;;;;;5005148;28;20216;-77
2022/11/17 01:54:29;;;;;;;10.02;6.63;;;11.00;94.30;;;;;;5006930;28;20239;-77
2022/11/17 01:57:01;;;;;;;14.00;7.32;;;11.00;94.70;;;;;;5008085;28;20212;-76
2022/11/17 01:59:30;;;;;;;12.90;6.65;;;11.00;94.40;;;;;;5005858;28;20686;-77
2022/11/17 02:01:57;;;;;;;11.30;7.43;;;11.00;94.80;;;;;;4989471;28;20944;-76
2022/11/17 02:04:40;;;;;;;13.45;7.50;;;10.90;94.60;;;;;;5007469;28;20247;-76
2022/11/17 02:07:17;;;;;;;9.40;6.45;;;10.90;94.40;;;;;;5003305;28;20235;-76
2022/11/17 02:09:44;;;;;;;9.13;6.50;;;10.90;94.50;;;;;;5005428;28;20176;-76
2022/11/17 02:12:13;;;;;;;10.93;7.20;;;10.90;95.30;;;;;;5003976;28;20278;-76
2022/11/17 02:14:39;;;;;;;7.90;6.75;;;10.90;95.60;;;;;;5004674;28;20238;-76
2022/11/17 02:17:07;;;;;;;14.35;7.30;;;10.80;96.00;;;;;;5004531;28;20184;-75
2022/11/17 02:19:37;;;;;;;9.32;6.97;;;10.80;95.90;;;;;;5003625;28;20185;-76
2022/11/17 02:22:36;;;;;;;9.60;6.53;;;10.70;95.50;;;;;;5003053;28;20682;-76
2022/11/17 02:25:10;;;;;;;8.27;7.13;;;10.70;94.90;;;;;;5002422;28;20593;-76
2022/11/17 02:27:44;;;;;;;10.35;6.93;;;10.80;95.20;;;;;;5007627;28;20204;-75
2022/11/17 02:30:21;;;;;;;9.95;7.15;;;10.80;96.30;;;;;;5006615;28;20267;-76
2022/11/17 02:33:11;;;;;;;8.90;6.43;;;10.80;95.90;;;;;;5006846;28;21005;-76
2022/11/17 02:35:45;;;;;;;6.90;6.30;;;10.80;95.90;;;;;;5007787;28;20212;-76
2022/11/17 02:38:11;;;;;;;9.07;7.20;;;10.80;95.90;;;;;;5004350;28;20685;-76
2022/11/17 02:40:42;;;;;;;12.13;7.70;;;10.70;96.40;;;;;;5004585;28;20189;-76
2022/11/17 02:46:09;;;;;;;8.98;6.10;;;10.70;96.10;;;;;;5002900;28;20188;-76
2022/11/17 02:48:39;;;;;;;9.13;6.55;;;10.70;96.00;;;;;;5006408;28;20181;-76
2022/11/17 02:51:09;;;;;;;8.40;6.57;;;10.70;95.60;;;;;;5002223;28;20189;-77
2022/11/17 02:53:37;;;;;;;8.98;6.22;;;10.70;95.50;;;;;;4987297;28;21855;-76
2022/11/17 02:56:03;;;;;;;10.32;6.00;;;10.70;95.40;;;;;;4987341;28;20593;-76
2022/11/17 02:58:28;;;;;;;12.05;6.15;;;10.80;95.70;;;;;;5005380;28;20189;-76
2022/11/17 03:00:54;;;;;;;11.35;6.50;;;10.80;95.30;;;;;;5004404;28;20173;-76
2022/11/17 03:03:58;;;;;;;8.85;5.47;;;10.80;95.40;;;;;;5004330;28;20632;-76
2022/11/17 03:06:44;;;;;;;6.03;5.43;;;10.90;95.40;;;;;;4958754;28;20203;-76
2022/11/17 03:09:25;;;;;;;9.20;6.72;;;10.90;95.00;;;;;;4962064;28;20190;-77
2022/11/17 03:12:23;;;;;;;8.07;5.60;;;10.90;95.30;;;;;;4958809;28;20222;-76
2022/11/17 03:14:54;;;;;;;6.03;5.35;;;10.90;95.30;;;;;;4903251;29;20191;-76
2022/11/17 03:17:45;;;;;;;9.60;6.07;;;10.90;95.40;;;;;;4903554;29;20272;-77
2022/11/17 03:20:21;;;;;;;7.03;5.40;;;10.90;94.60;;;;;;4901742;29;20188;-77
2022/11/17 03:22:53;;;;;;;10.90;6.05;;;10.90;94.70;;;;;;4901453;29;20188;-76
2022/11/17 03:25:22;;;;;;;7.22;5.28;;;10.90;94.90;;;;;;4903378;29;20275;-76
2022/11/17 03:27:52;;;;;;;7.90;5.65;;;11.00;95.50;;;;;;4902489;29;20197;-76
2022/11/17 03:30:21;;;;;;;9.63;6.03;;;10.90;95.10;;;;;;4903774;29;20343;-76
2022/11/17 03:32:52;;;;;;;8.25;5.30;;;11.00;95.70;;;;;;4903001;29;20413;-76
2022/11/17 03:35:22;;;;;;;9.63;4.63;;;11.00;95.70;;;;;;4903436;29;20193;-75
2022/11/17 03:37:52;;;;;;;7.25;5.57;;;11.00;95.20;;;;;;4903232;29;20200;-76
2022/11/17 03:40:22;;;;;;;5.72;4.90;;;11.00;95.00;;;;;;4903825;29;20283;-76
2022/11/17 03:42:53;;;;;;;9.85;6.07;;;11.00;95.30;;;;;;4911648;29;20590;-76
2022/11/17 03:45:25;;;;;;;10.75;5.80;;;11.00;95.50;;;;;;4922501;29;20222;-76
2022/11/17 03:47:59;;;;;;;7.05;5.20;;;11.10;95.70;;;;;;4922132;29;20716;-76
2022/11/17 03:50:33;;;;;;;6.43;4.80;;;11.10;95.20;;;;;;4935713;28;20193;-76
2022/11/17 03:53:03;;;;;;;8.48;5.20;;;11.10;95.00;;;;;;5000791;28;20217;-76
2022/11/17 03:55:57;;;;;;;6.00;5.38;;;11.10;95.00;;;;;;5004709;28;20193;-76
2022/11/17 03:58:29;;;;;;;7.07;4.55;;;11.10;94.90;;;;;;4961420;28;20233;-76
2022/11/17 04:00:57;;;;;;;7.20;4.35;;;11.10;94.80;;;;;;4960950;28;20197;-77
2022/11/17 04:03:22;;;;;;;7.60;5.10;;;11.20;95.00;;;;;;4963057;28;20198;-76
2022/11/17 04:05:49;;;;;;;6.28;5.05;;;11.20;94.70;;;;;;4961760;28;20214;-75
2022/11/17 04:08:15;;;;;;;9.23;5.32;;;11.20;94.60;;;;;;4961812;28;20198;-75
2022/11/17 04:16:09;;;;;;;7.97;5.50;;;11.30;95.00;;;;;;4962146;28;20200;-76
2022/11/17 04:18:35;;;;;;;5.65;4.70;;;11.40;95.00;;;;;;4961236;28;20178;-76
2022/11/17 04:21:01;;;;;;;5.15;4.65;;;11.30;95.50;;;;;;4961701;28;20190;-76
2022/11/17 04:23:27;;;;;;;5.32;4.93;;;11.30;95.00;;;;;;4960768;28;20246;-76
2022/11/17 04:28:43;;;;;;;11.90;4.95;;;11.30;95.20;;;;;;4959468;28;20224;-76
2022/11/17 04:31:09;;;;;;;7.07;4.68;;;11.30;94.90;;;;;;4961988;28;20744;-75
2022/11/17 04:33:35;;;;;;;7.88;5.32;;;11.30;95.20;;;;;;4946847;28;20221;-76
2022/11/17 04:36:02;;;;;;;6.15;4.28;;;11.20;94.80;;;;;;4994811;28;20232;-77
2022/11/17 04:38:28;;;;;;;5.50;4.80;;;11.20;95.10;;;;;;5002553;28;20185;-77
2022/11/17 04:43:49;;;;;;;7.53;4.45;;;11.20;95.10;;;;;;5006852;28;20282;-77
2022/11/17 04:46:16;;;;;;;5.70;4.43;;;11.20;94.90;;;;;;5002732;28;20181;-77
2022/11/17 04:48:42;;;;;;;4.97;4.15;;;11.20;94.70;;;;;;5003875;28;20250;-76
2022/11/17 04:51:07;;;;;;;4.68;4.28;;;11.20;94.70;;;;;;5002728;28;20223;-77
2022/11/17 04:53:33;;;;;;;5.88;4.68;;;11.20;94.90;;;;;;5002377;28;21423;-76
2022/11/17 04:56:02;;;;;;;5.93;4.28;;;11.20;94.80;;;;;;5002785;28;20699;-76
2022/11/17 04:58:28;;;;;;;5.22;4.75;;;11.20;94.70;;;;;;5005175;28;20682;-76
2022/11/17 05:00:54;;;;;;;6.78;4.55;;;11.20;94.70;;;;;;5001040;28;20187;-77
2022/11/17 05:03:20;;;;;;;9.18;4.65;;;11.20;94.40;;;;;;4986105;28;20188;-77
2022/11/17 05:05:46;;;;;;;8.07;4.50;;;11.30;95.00;;;;;;5002743;28;20177;-76
2022/11/17 05:08:13;;;;;;;5.28;4.13;;;11.30;94.30;;;;;;5003167;28;20180;-76
2022/11/17 05:13:25;;;;;;;6.13;4.18;;;11.30;94.10;;;;;;5011206;28;20212;-77
2022/11/17 05:18:41;;;;;;;6.28;4.32;;;11.30;94.50;;;;;;5005994;28;20276;-76
2022/11/17 05:21:08;;;;;;;5.13;4.22;;;11.30;94.30;;;;;;5010393;28;20227;-76
2022/11/17 05:23:52;;;;;;;5.55;4.05;;;11.30;94.00;;;;;;4990332;28;20204;-76
2022/11/17 05:26:26;;;;;;;5.13;4.18;;;11.30;93.90;;;;;;5007043;28;20185;-77
2022/11/17 05:28:54;;;;;;;5.10;4.45;;;11.30;94.00;;;;;;5007906;28;20185;-78
2022/11/17 05:31:20;;;;;;;5.22;4.25;;;11.30;93.90;;;;;;5005442;28;20177;-76
2022/11/17 05:33:46;;;;;;;4.57;3.97;;;11.40;94.30;;;;;;5007502;28;20264;-77
2022/11/17 05:36:12;;;;;;;6.82;4.63;;;11.40;94.20;;;;;;5004947;28;20231;-78
2022/11/17 05:38:38;;;;;;;5.07;4.47;;;11.40;93.90;;;;;;4987063;28;20628;-76
2022/11/17 05:41:04;;;;;;;5.70;4.45;;;11.40;94.10;;;;;;5006788;28;20200;-77
2022/11/17 05:43:30;;;;;;;5.20;4.63;;;11.40;94.10;;;;;;5008444;28;20255;-76
2022/11/17 05:45:55;;;;;;;5.85;5.28;;;11.40;93.90;;;;;;5007179;28;20181;-77
2022/11/17 05:48:22;;;;;;;6.75;4.78;;;11.40;94.30;;;;;;5008175;28;20578;-78
2022/11/17 05:50:47;;;;;;;6.20;4.65;;;11.40;93.90;;;;;;5007492;28;20189;-74
2022/11/17 05:53:13;;;;;;;5.88;4.50;;;11.40;93.90;;;;;;5007488;28;20271;-75
2022/11/17 05:55:39;;;;;;;6.78;4.60;;;11.40;93.90;;;;;;5008083;28;20219;-75
2022/11/17 05:58:21;;;;;;;4.88;4.47;;;11.40;93.70;;;;;;5006633;28;20714;-74
2022/11/17 06:00:48;;;;;;;8.95;4.40;;;11.40;93.30;;;;;;5010252;28;20214;-74
2022/11/17 06:03:27;;;;;;;7.70;4.68;;;11.40;94.00;;;;;;5007951;28;20176;-75
2022/11/17 06:05:53;;;;;;;6.03;4.50;;;11.40;93.90;;;;;;5005078;28;20189;-74
2022/11/17 06:08:19;;;;;;;5.95;4.72;;;11.40;93.90;;;;;;5005296;28;20228;-74
2022/11/17 06:10:45;;;;;;;5.80;4.43;;;11.40;93.90;;;;;;5005207;28;20173;-73
2022/11/17 06:13:11;;;;;;;6.32;4.70;;;11.50;95.00;;;;;;5007814;28;20204;-74
2022/11/17 06:15:37;;;;;;;10.52;5.15;;;11.50;94.80;;;;;;5005355;28;20180;-74
2022/11/17 06:18:13;;;;;;;7.82;4.97;;;11.40;94.30;;;;;;5006018;28;20213;-74
2022/11/17 06:20:44;;;;;;;6.38;4.63;;;11.40;94.20;;;;;;5003489;28;20197;-74
2022/11/17 06:23:10;;;;;;;5.60;3.97;;;11.40;94.30;;;;;;5005363;28;20670;-73
2022/11/17 06:25:38;;;;;;;7.45;3.72;;;11.40;94.20;;;;;;4988834;28;20689;-74
2022/11/17 06:28:07;;;;;;;7.40;4.20;;;11.40;94.10;;;;;;5006553;28;20189;-74
2022/11/17 06:30:34;;;;;;;4.72;4.05;;;11.40;94.40;;;;;;5005996;28;20235;-74
2022/11/17 06:33:01;;;;;;;4.63;3.92;;;11.40;94.00;;;;;;5004255;28;20208;-73
2022/11/17 06:35:32;;;;;;;4.03;3.40;;;11.40;94.00;;;;;;5008158;28;20193;-73
2022/11/17 06:37:58;;;;;;;4.63;4.28;;;11.50;93.90;;;;;;5002459;28;20291;-72
2022/11/17 06:40:25;;;;;;;3.80;3.50;;;11.50;94.00;;;;;;5002546;28;20239;-71
2022/11/17 06:43:07;;;;;;;3.03;2.92;;;11.50;94.20;;;;;;5005402;28;20231;-74
2022/11/17 06:45:37;;;;;;;5.15;2.92;;;11.60;94.90;;;;;;5007429;28;21066;-74
2022/11/17 06:48:04;;;;;;;3.75;3.25;;;11.60;94.10;;;;;;5006025;28;20250;-74
2022/11/17 06:50:32;;;;;;;9.07;3.67;;;11.60;94.60;;;;;;5007058;28;20192;-74
2022/11/17 06:52:59;;;;;;;6.15;3.20;;;11.60;94.30;;;;;;5000504;28;20303;-74
2022/11/17 06:55:25;;;;;;;6.28;4.07;;;11.60;94.20;;;;;;5004152;28;20201;-73
2022/11/17 06:57:51;;;;;;;5.28;3.35;;;11.70;95.90;;;;;;5002396;28;20185;-74
2022/11/17 07:00:18;;;;;;;4.20;3.90;;;11.70;95.80;;;;;;5003197;28;20181;-75
2022/11/17 07:02:43;;;;;;;6.35;3.72;;;11.70;96.00;;;;;;5005902;28;20251;-74
2022/11/17 07:05:09;;;;;;;4.20;3.67;;;11.60;96.60;;;;;;5000570;28;20185;-73
2022/11/17 07:07:35;;;;;;;6.07;4.10;;;11.60;96.60;;;;;;5003321;28;20185;-74
2022/11/17 07:10:00;;;;;;;3.95;3.60;;;11.60;96.80;;;;;;5003495;28;20188;-74
2022/11/17 07:12:26;;;;;;;2.75;2.63;;;11.50;97.30;;;;;;5003897;28;20304;-72
2022/11/17 07:14:52;;;;;;;2.13;2.00;;;11.50;97.30;;;;;;5001166;28;20188;-74
2022/11/17 07:17:17;;;;;;;2.05;1.58;;;11.40;97.30;;;;;;5002802;28;20272;-74
2022/11/17 07:19:43;;;;;;;1.33;1.27;;;11.40;97.30;;;;;;5003539;28;20238;-74
2022/11/17 07:22:09;;;;;;;1.35;1.25;;;11.40;97.30;;;;;;4999814;28;20206;-74
2022/11/17 07:24:34;;;;;;;1.60;0.95;;;11.40;97.10;;;;;;5002411;28;20189;-74
2022/11/17 07:27:00;;;;;;;0.80;0.80;;;11.40;97.00;;;;;;5001684;28;20184;-73
2022/11/17 07:29:27;;;;;;;0.88;0.70;;;11.50;96.70;;;;;;5001808;28;20244;-74
2022/11/17 07:31:53;;;;;;;1.60;0.73;;;11.60;96.30;;;;;;5003282;28;20693;-73
2022/11/17 07:34:18;;;;;;;0.60;0.60;;;11.60;95.80;;;;;;5001152;28;20275;-74
2022/11/17 07:36:44;;;;;;;0.50;0.40;;;11.70;95.10;;;;;;5002032;28;20205;-74
2022/11/17 07:39:11;;;;;;;0.40;0.40;;;11.70;94.80;;;;;;5000386;28;20817;-74
2022/11/17 07:41:36;;;;;;;0.30;0.30;;;11.70;93.10;;;;;;4985678;28;20716;-73
2022/11/17 07:44:02;;;;;;;0.32;0.32;;;11.70;94.00;;;;;;4984199;28;20197;-74
2022/11/17 07:46:28;;;;;;;0.50;0.50;;;11.80;93.80;;;;;;5002929;28;20185;-74
2022/11/17 07:48:55;;;;;;;2.47;0.50;;;11.90;93.80;;;;;;5004143;28;20259;-75
2022/11/17 07:51:20;;;;;;;0.40;0.40;;;12.00;93.90;;;;;;5004971;28;20235;-74
2022/11/17 07:53:46;;;;;;;0.40;0.40;;;12.10;93.90;;;;;;5001155;28;20213;-74
2022/11/17 07:56:12;;;;;;;1.30;0.40;;;12.10;93.40;;;;;;4985785;28;20212;-74
2022/11/17 07:58:38;;;;;;;0.52;0.52;;;12.20;93.60;;;;;;5002217;28;20191;-74
2022/11/17 08:01:09;;;;;;;0.75;0.75;;;12.20;93.80;;;;;;5001991;28;20184;-75
2022/11/17 08:03:35;;;;;;;0.45;0.45;;;12.30;93.50;;;;;;5005106;28;20693;-75
2022/11/17 08:06:05;;;;;;;0.55;0.50;;;12.40;93.40;;;;;;5002427;28;20194;-73
2022/11/17 08:08:31;;;;;;;0.30;0.30;;;12.40;92.90;;;;;;5001454;28;20659;-74
2022/11/17 08:11:02;;;;;;;0.32;0.32;;;12.40;91.80;;;;;;5001379;28;20570;-73
2022/11/17 08:13:28;;;;;;;0.10;0.10;;;12.50;90.80;;;;;;4987508;28;20219;-74
2022/11/17 08:15:58;;;;;;;0.15;0.15;;;12.50;88.50;;;;;;4998867;28;20181;-74
2022/11/17 08:18:24;;;;;;;1.00;0.20;;;12.70;88.90;;;;;;4999979;28;20670;-74
2022/11/17 08:20:50;;;;;;;0.10;0.10;;;12.80;88.90;;;;;;4998923;28;20176;-74
2022/11/17 08:23:16;;;;;;;0.20;0.20;;;12.90;87.30;;;;;;4985074;28;20189;-73
2022/11/17 08:25:42;;;;;;;0.57;0.20;;;13.00;86.90;;;;;;5005148;28;20682;-74
2022/11/17 08:28:08;;;;;;;2.38;0.20;;;13.00;87.90;;;;;;5002729;28;20193;-74
2022/11/17 08:30:34;;;;;;;0.10;0.10;;;13.10;87.50;;;;;;5005297;28;20197;-74
2022/11/17 08:33:01;;;;;;;0.25;0.25;;;13.10;85.90;;;;;;5002270;28;20901;-74
2022/11/17 08:35:27;;;;;;;0.30;0.30;;;13.20;86.40;;;;;;5004228;28;20185;-73
2022/11/17 08:37:53;;;;;;;0.20;0.20;;;13.20;85.90;;;;;;5001674;28;20185;-73
2022/11/17 08:40:20;;;;;;;0.32;0.32;;;13.30;85.40;;;;;;5004544;28;20180;-74
2022/11/17 08:42:46;;;;;;;0.30;0.30;;;13.30;84.80;;;;;;5000965;28;20185;-73
2022/11/17 08:45:12;;;;;;;0.25;0.25;;;13.40;84.80;;;;;;5002902;28;20185;-73
2022/11/17 08:47:38;;;;;;;0.20;0.20;;;13.60;84.70;;;;;;5003462;28;20196;-73
2022/11/17 08:50:05;;;;;;;0.40;0.40;;;13.60;83.00;;;;;;5003450;28;20580;-74
2022/11/17 08:52:31;;;;;;;0.20;0.20;;;13.70;83.70;;;;;;5003052;28;20250;-74
2022/11/17 08:54:57;;;;;;;0.10;0.10;;;13.90;83.60;;;;;;4986490;28;20200;-74
2022/11/17 08:57:23;;;;;;;0.10;0.10;;;14.10;81.50;;;;;;5002079;28;20247;-74
2022/11/17 08:59:49;;;;;;;0.20;0.20;;;14.20;80.30;;;;;;5002582;28;20192;-74
2022/11/17 09:02:15;;;;;;;0.20;0.20;;;14.30;80.20;;;;;;5003819;28;20699;-74
2022/11/17 09:04:41;;;;;;;0.20;0.20;;;14.40;80.20;;;;;;5004968;28;20239;-74
2022/11/17 09:07:08;;;;;;;0.30;0.30;;;14.60;80.30;;;;;;5003084;28;20189;-73
2022/11/17 09:09:33;;;;;;;0.20;0.20;;;14.60;79.70;;;;;;5002952;28;20196;-74
2022/11/17 09:11:59;;;;;;;0.15;0.15;;;14.70;79.10;;;;;;5002749;28;21027;-74
2022/11/17 09:14:25;;;;;;;0.20;0.20;;;14.80;78.40;;;;;;5002009;28;20193;-73
2022/11/17 09:16:51;;;;;;;0.68;0.28;;;14.90;78.80;;;;;;5001114;28;20650;-74
2022/11/17 09:19:18;;;;;;;0.88;0.28;;;14.90;77.90;;;;;;5002147;28;20243;-74
2022/11/17 09:21:43;;;;;;;0.30;0.30;;;15.00;78.90;;;;;;5000663;28;21009;-74
2022/11/17 09:24:09;;;;;;;0.30;0.30;;;15.10;78.00;;;;;;5003574;28;20192;-74
2022/11/17 09:26:39;;;;;;;0.30;0.30;;;15.10;76.90;;;;;;5000241;28;20192;-74
2022/11/17 09:29:05;;;;;;;1.95;0.30;;;15.10;77.80;;;;;;5002334;28;20987;-74
2022/11/17 09:31:31;;;;;;;0.20;0.20;;;15.20;78.30;;;;;;5003125;28;20180;-73
2022/11/17 09:33:57;;;;;;;0.30;0.30;;;15.30;77.30;;;;;;5003780;28;20304;-74
2022/11/17 09:36:23;;;;;;;0.30;0.30;;;15.30;76.80;;;;;;5002483;28;20268;-73
2022/11/17 09:38:49;;;;;;;0.30;0.30;;;15.40;78.60;;;;;;5002715;28;20734;-73
2022/11/17 09:41:15;;;;;;;0.30;0.30;;;15.40;76.50;;;;;;5006137;28;20615;-74
2022/11/17 09:44:18;;;;;;;1.05;0.50;;;15.40;76.60;;;;;;5002597;28;20220;-74
2022/11/17 09:47:05;;;;;;;0.40;0.40;;;15.40;76.60;;;;;;5002884;28;20184;-74
2022/11/17 09:49:52;;;;;;;0.30;0.30;;;15.40;77.50;;;;;;5002576;28;20724;-74
2022/11/17 09:52:25;;;;;;;1.35;0.50;;;15.50;78.90;;;;;;5001645;28;20725;-74
2022/11/17 09:54:57;;;;;;;1.27;0.30;;;15.70;79.40;;;;;;5005818;28;20669;-75
2022/11/17 09:57:29;;;;;;;0.30;0.30;;;15.80;79.30;;;;;;5006974;28;20191;-74
2022/11/17 10:00:10;;;;;;;0.20;0.20;;;15.90;78.20;;;;;;5003391;28;20181;-74
2022/11/17 10:02:36;;;;;;;0.30;0.30;;;16.00;77.40;;;;;;5005351;28;20745;-73
2022/11/17 10:05:02;;;;;;;0.30;0.30;;;16.00;76.90;;;;;;5005169;28;20181;-73
2022/11/17 10:07:30;;;;;;;2.83;2.38;;;16.00;77.80;;;;;;5004234;28;20191;-73
2022/11/17 10:09:59;;;;;;;3.03;2.90;;;16.10;79.50;;;;;;5005304;28;20189;-73
2022/11/17 10:12:31;;;;;;;3.05;2.72;;;16.10;80.40;;;;;;5006591;28;20258;-73
2022/11/17 10:15:04;;;;;;;1.77;1.75;;;16.10;80.30;;;;;;5006083;28;20181;-74
2022/11/17 10:17:31;;;;;;;2.00;1.83;;;16.00;80.30;;;;;;5005341;28;20282;-73
2022/11/17 10:19:57;;;;;;;3.03;2.92;;;16.00;80.20;;;;;;4986860;28;20205;-73
2022/11/17 10:22:31;;;;;;;3.15;2.88;;;16.00;81.40;;;;;;5003330;28;20639;-73
2022/11/17 10:24:57;;;;;;;3.50;2.97;;;16.00;81.20;;;;;;5003700;28;20189;-74
2022/11/17 10:27:30;;;;;;;1.48;1.45;;;15.90;81.50;;;;;;5006410;28;20584;-73
2022/11/17 10:30:10;;;;;;;0.88;0.73;;;15.90;80.20;;;;;;5005538;28;20203;-73
2022/11/17 10:32:46;;;;;;;0.40;0.40;;;15.70;79.30;;;;;;5007888;28;20251;-74
2022/11/17 10:35:14;;;;;;;0.60;0.40;;;15.60;78.50;;;;;;5005092;28;20199;-74
2022/11/17 10:37:54;;;;;;;3.83;2.22;;;15.60;78.80;;;;;;5005668;28;20181;-72
2022/11/17 10:40:25;;;;;;;3.72;2.25;;;15.70;80.70;;;;;;5005842;28;20191;-73
2022/11/17 10:43:29;;;;;;;3.17;1.25;;;15.70;81.10;;;;;;5004185;28;20200;-73
2022/11/17 10:46:00;;;;;;;1.33;1.20;;;15.70;81.10;;;;;;5004849;28;20199;-73
2022/11/17 10:48:38;;;;;;;1.75;0.50;;;15.70;80.80;;;;;;5005302;28;20602;-73
2022/11/17 10:51:18;;;;;;;0.60;0.30;;;15.60;79.70;;;;;;5004375;28;20180;-72
2022/11/17 10:53:58;;;;;;;0.30;0.30;;;15.60;79.40;;;;;;5004071;28;20201;-74
2022/11/17 10:56:24;;;;;;;0.10;0.10;;;15.60;79.60;;;;;;5003566;28;20247;-73
2022/11/17 10:59:08;;;;;;;0.55;0.20;;;15.60;79.80;;;;;;5004724;28;20567;-73
2022/11/17 11:01:37;;;;;;;0.20;0.20;;;15.70;79.40;;;;;;4986325;28;20848;-74
2022/11/17 11:04:05;;;;;;;0.32;0.32;;;15.60;79.20;;;;;;5003996;28;20910;-74
2022/11/17 11:06:33;;;;;;;0.20;0.20;;;15.70;79.20;;;;;;4985887;28;21071;-73
2022/11/17 11:09:16;;;;;;;0.20;0.20;;;15.80;78.90;;;;;;5004091;28;20185;-73
2022/11/17 11:11:52;;;;;;;0.10;0.10;;;15.90;78.80;;;;;;5004003;28;20682;-74
2022/11/17 11:14:30;;;;;;;0.40;0.40;;;15.90;78.80;;;;;;5002892;28;20276;-73
2022/11/17 11:16:56;;;;;;;0.20;0.20;;;15.90;79.00;;;;;;5003662;28;20184;-73
2022/11/17 11:19:22;;;;;;;0.20;0.20;;;15.90;78.80;;;;;;5005087;28;20196;-74
2022/11/17 11:22:06;;;;;;;0.85;0.30;;;16.30;78.90;;;;;;5003628;28;20670;-73
2022/11/17 11:25:01;;;;;;;0.10;0.10;;;16.90;77.50;;;;;;5002969;28;20678;-73
2022/11/17 11:27:32;;;;;;;1.25;0.15;;;17.60;76.50;;;;;;5004235;28;20682;-73
2022/11/17 11:30:10;;;;;;;1.38;0.30;;;18.40;73.60;;;;;;5003343;28;20239;-74
2022/11/17 11:32:53;;;;;;;0.52;0.32;;;19.00;72.60;;;;;;5002537;28;20208;-74
2022/11/17 11:35:37;;;;;;;0.20;0.20;;;19.60;71.50;;;;;;4986528;28;20232;-74
2022/11/17 11:38:37;;;;;;;0.70;0.30;;;20.00;70.10;;;;;;5003694;28;20236;-73
2022/11/17 11:41:09;;;;;;;0.30;0.20;;;20.30;70.40;;;;;;5004174;28;20249;-72
2022/11/17 11:43:53;;;;;;;3.72;0.30;;;20.40;69.00;;;;;;5004748;28;20654;-73
2022/11/17 11:46:24;;;;;;;0.20;0.20;;;20.30;68.90;;;;;;5003933;28;20235;-73
2022/11/17 11:48:53;;;;;;;0.38;0.25;;;20.10;69.80;;;;;;5003785;28;20188;-74
2022/11/17 11:51:35;;;;;;;0.20;0.20;;;20.20;69.20;;;;;;5003262;28;20177;-73
2022/11/17 11:54:25;;;;;;;0.22;0.22;;;20.10;70.00;;;;;;5003323;28;20211;-73
2022/11/17 11:56:52;;;;;;;0.20;0.20;;;19.90;69.50;;;;;;5003095;28;20598;-73
2022/11/17 11:59:38;;;;;;;0.13;0.13;;;19.90;70.50;;;;;;5005088;28;20828;-73
2022/11/17 12:02:20;;;;;;;0.47;0.43;;;19.80;70.40;;;;;;4998282;28;20677;-73
2022/11/17 12:05:00;;;;;;;0.20;0.20;;;19.40;69.90;;;;;;5003093;28;20184;-73
2022/11/17 12:07:54;;;;;;;0.30;0.30;;;19.20;71.10;;;;;;5001575;28;20736;-73
2022/11/17 12:10:31;;;;;;;0.40;0.40;;;19.40;71.20;;;;;;5002639;28;20679;-73
2022/11/17 12:12:58;;;;;;;0.40;0.40;;;19.40;70.70;;;;;;5002094;28;20205;-73
2022/11/17 12:15:24;;;;;;;0.40;0.40;;;19.30;71.50;;;;;;5001895;28;20224;-73
2022/11/17 12:18:11;;;;;;;0.38;0.38;;;19.40;71.60;;;;;;4984014;28;20582;-73
2022/11/17 12:20:37;;;;;;;0.30;0.30;;;19.30;71.90;;;;;;5000369;28;20717;-73
2022/11/17 12:23:27;;;;;;;0.38;0.32;;;19.00;72.00;;;;;;5000256;28;20185;-74
2022/11/17 12:25:58;;;;;;;0.43;0.43;;;18.70;73.40;;;;;;4998197;28;20200;-73
2022/11/17 12:28:36;;;;;;;0.43;0.43;;;18.60;73.80;;;;;;4985215;28;20840;-73
2022/11/17 12:31:10;;;;;;;0.30;0.30;;;18.50;73.80;;;;;;5000929;28;20238;-73
2022/11/17 12:33:51;;;;;;;0.40;0.40;;;18.40;74.50;;;;;;5001736;28;20768;-74
2022/11/17 12:36:23;;;;;;;0.30;0.30;;;18.30;74.70;;;;;;4998862;28;20575;-73
2022/11/17 12:38:53;;;;;;;1.20;0.40;;;18.40;74.50;;;;;;4998276;28;20203;-74
2022/11/17 12:41:46;;;;;;;0.40;0.40;;;18.70;73.80;;;;;;4999729;28;20242;-74
2022/11/17 12:44:31;;;;;;;0.50;0.50;;;19.10;74.20;;;;;;5001728;28;20958;-73
2022/11/17 12:47:22;;;;;;;0.47;0.30;;;19.70;72.30;;;;;;5001766;28;20185;-72
2022/11/17 12:49:54;;;;;;;1.88;0.50;;;20.10;70.60;;;;;;4999247;28;20181;-72
2022/11/17 12:52:39;;;;;;;0.50;0.50;;;20.50;70.70;;;;;;4998304;28;20208;-72
2022/11/17 12:55:29;;;;;;;0.30;0.30;;;20.80;69.80;;;;;;5000157;28;20212;-72
2022/11/17 12:58:03;;;;;;;0.28;0.28;;;21.00;67.80;;;;;;4998850;28;21080;-72
2022/11/17 13:00:39;;;;;;;0.32;0.32;;;20.90;68.80;;;;;;5003990;28;20188;-74
2022/11/17 13:03:12;;;;;;;1.58;0.40;;;20.80;69.70;;;;;;5005135;28;20192;-73
2022/11/17 13:05:37;;;;;;;0.40;0.40;;;20.70;69.00;;;;;;4998834;28;21111;-73
2022/11/17 13:08:12;;;;;;;0.50;0.50;;;20.50;69.40;;;;;;5001179;28;20325;-74
2022/11/17 13:10:38;;;;;;;0.40;0.40;;;20.30;69.80;;;;;;5000328;28;20192;-73
2022/11/17 13:13:18;;;;;;;0.50;0.50;;;20.10;70.60;;;;;;4999701;28;20201;-74
2022/11/17 13:15:47;;;;;;;0.47;0.47;;;20.10;69.80;;;;;;4999144;28;20657;-74
2022/11/17 13:18:34;;;;;;;0.28;0.28;;;20.10;70.40;;;;;;5001148;28;20185;-73
2022/11/17 13:21:01;;;;;;;0.30;0.30;;;20.20;69.40;;;;;;5002747;28;20197;-74
2022/11/17 13:23:33;;;;;;;0.38;0.38;;;20.10;69.90;;;;;;5003155;28;20185;-73
2022/11/17 13:26:15;;;;;;;0.38;0.38;;;20.20;69.90;;;;;;4997792;28;20189;-73
2022/11/17 13:28:43;;;;;;;0.30;0.30;;;20.30;70.40;;;;;;4985767;28;20189;-73
2022/11/17 13:31:22;;;;;;;0.32;0.32;;;20.40;69.40;;;;;;5007571;28;20188;-73